Accueil
METAR-TAF:

METAR-TAF

Aéroports :

Seattle / Tacoma, Washington, États-Unis

Aéroport international de Seattle-Tacoma

latitude: 47-26-41N, longitude: 122-18-49W, altitude: 130 m

Observation

Le bulletin a été fait il y a 16 minutes, à 02:53 UTC
Vent 9 kt de nord
Température 19°C
Humidité 40%
Pression 1017 hPa
Visibilité: 16.1 km
Nuages fragmentés à une hauteur de 23000 ft

METAR: KSEA 250253Z 36009KT 10SM BKN230 19/05 A3003 RMK AO2 SLP175 T01890050 56013

Heure: 20:09 (03:09 UTC)

Prévision

Le bulletin a été fait il y a 10 minutes, à 02:59 UTC
Prévision valable du 25 à 03 UTC au 26 à 06 UTC
Vent 8 kt de nord
Visibilité: 10 km
Nuages épars à une hauteur de 25000 ft

TAF: KSEA 250259Z 2503/2606 01008KT P6SM SCT250

Observations et prévisions météorologiques de plus de 4000 aéroports (messages METAR et TAF).

Les stations disponibles sont représentées par des disques jaunes et rouges sur la carte.

Passer la souris dessus pour voir le nom de la station.

Cliquer dessus pour voir les observations et prévisions météorologiques.

Pour changer de carte: cliquez sur les boutons verts avec une croix noire pour zoomer, sur le bouton vert avec un tiret pour effectuer un zoom arrière, ou sur les flèches vertes pour les cartes adjacentes.


METAR-TAF: